Aviation Digital Data Service (ADDS)

Output produced by METARs form (0155 UTC 16 July 2019)
found at http://www.aviationweather.gov/metar/data/
 
METAR text: KMAF 160153Z 14007KT 10SM CLR 34/14 A2994 RMK AO2 SLP083 T03390139
Conditions at: KMAF (MIDLAND , TX, US) observed 0153 UTC 16 July 2019
Temperature: 33.9°C (93°F)
Dewpoint: 13.9°C (57°F) [RH = 30%]
Pressure (altimeter): 29.94 inches Hg (1014.0 mb)
[Sea-level pressure: 1008.3 mb]
Winds: from the SE (140 degrees) at 8 MPH (7 knots; 3.6 m/s)
Visibility: 10 or more miles (16+ km)
Ceiling: at least 12,000 feet AGL
Clouds: sky clear below 12,000 feet AGL
Weather: no significant weather observed at this time

METAR text: KMAF 160053Z 15008KT 10SM CLR 36/14 A2993 RMK AO2 SLP082 T03560139
Conditions at: KMAF (MIDLAND , TX, US) observed 0053 UTC 16 July 2019
Temperature: 35.6°C (96°F)
Dewpoint: 13.9°C (57°F) [RH = 27%]
Pressure (altimeter): 29.93 inches Hg (1013.6 mb)
[Sea-level pressure: 1008.2 mb]
Winds: from the SSE (150 degrees) at 9 MPH (8 knots; 4.1 m/s)
Visibility: 10 or more miles (16+ km)
Ceiling: at least 12,000 feet AGL
Clouds: sky clear below 12,000 feet AGL
Weather: no significant weather observed at this time

METAR text: KMAF 152353Z 16008KT 10SM SCT085 37/13 A2993 RMK AO2 SLP080 T03670133 10378 20333 56015
Conditions at: KMAF (MIDLAND , TX, US) observed 2353 UTC 15 July 2019
Temperature: 36.7°C (98°F)
Dewpoint: 13.3°C (56°F) [RH = 25%]
Pressure (altimeter): 29.93 inches Hg (1013.6 mb)
[Sea-level pressure: 1008.0 mb]
Winds: from the SSE (160 degrees) at 9 MPH (8 knots; 4.1 m/s)
Visibility: 10 or more miles (16+ km)
Ceiling: at least 12,000 feet AGL
Clouds: scattered clouds at 8500 feet AGL
Weather: no significant weather observed at this time

METAR text: KMAF 152253Z 14009G14KT 10SM CLR 37/14 A2994 RMK AO2 SLP084 T03670139
Conditions at: KMAF (MIDLAND , TX, US) observed 2253 UTC 15 July 2019
Temperature: 36.7°C (98°F)
Dewpoint: 13.9°C (57°F) [RH = 26%]
Pressure (altimeter): 29.94 inches Hg (1014.0 mb)
[Sea-level pressure: 1008.4 mb]
Winds: from the SE (140 degrees) at 10 MPH (9 knots; 4.6 m/s)
gusting to 16 MPH (14 knots; 7.2 m/s)
Visibility: 10 or more miles (16+ km)
Ceiling: at least 12,000 feet AGL
Clouds: sky clear below 12,000 feet AGL
Weather: no significant weather observed at this time

METAR text: KMAF 152153Z VRB06G15KT 10SM FEW090 36/13 A2995 RMK AO2 SLP089 T03610128
Conditions at: KMAF (MIDLAND , TX, US) observed 2153 UTC 15 July 2019
Temperature: 36.1°C (97°F)
Dewpoint: 12.8°C (55°F) [RH = 25%]
Pressure (altimeter): 29.95 inches Hg (1014.3 mb)
[Sea-level pressure: 1008.9 mb]
Winds: variable direction winds at 7 MPH (6 knots; 3.1 m/s)
gusting to 17 MPH (15 knots; 7.7 m/s)
Visibility: 10 or more miles (16+ km)
Ceiling: at least 12,000 feet AGL
Clouds: few clouds at 9000 feet AGL
Weather: no significant weather observed at this time

METAR text: KMAF 152053Z VRB03KT 10SM CLR 37/14 A2997 RMK AO2 SLP097 T03670139 58020
Conditions at: KMAF (MIDLAND , TX, US) observed 2053 UTC 15 July 2019
Temperature: 36.7°C (98°F)
Dewpoint: 13.9°C (57°F) [RH = 26%]
Pressure (altimeter): 29.97 inches Hg (1015.0 mb)
[Sea-level pressure: 1009.7 mb]
Winds: variable direction winds at 3 MPH (3 knots; 1.5 m/s)
Visibility: 10 or more miles (16+ km)
Ceiling: at least 12,000 feet AGL
Clouds: sky clear below 12,000 feet AGL
Weather: no significant weather observed at this time

METAR text: KMAF 151953Z 18008KT 10SM SCT075 35/15 A3000 RMK AO2 SLP104 T03500150 $
Conditions at: KMAF (MIDLAND , TX, US) observed 1953 UTC 15 July 2019
Temperature: 35.0°C (95°F)
Dewpoint: 15.0°C (59°F) [RH = 30%]
Pressure (altimeter): 30.00 inches Hg (1016.0 mb)
[Sea-level pressure: 1010.4 mb]
Winds: from the S (180 degrees) at 9 MPH (8 knots; 4.1 m/s)
Visibility: 10 or more miles (16+ km)
Ceiling: at least 12,000 feet AGL
Clouds: scattered clouds at 7500 feet AGL
Weather:
SOME DATA ABOVE MAY BE INACCURATE!!!
"$" is an indication the sensor requires maintenance

METAR text: KMAF 151853Z 15012G15KT 10SM CLR 35/15 A3002 RMK AO2 SLP111 T03500150
Conditions at: KMAF (MIDLAND , TX, US) observed 1853 UTC 15 July 2019
Temperature: 35.0°C (95°F)
Dewpoint: 15.0°C (59°F) [RH = 30%]
Pressure (altimeter): 30.02 inches Hg (1016.7 mb)
[Sea-level pressure: 1011.1 mb]
Winds: from the SSE (150 degrees) at 14 MPH (12 knots; 6.2 m/s)
gusting to 17 MPH (15 knots; 7.7 m/s)
Visibility: 10 or more miles (16+ km)
Ceiling: at least 12,000 feet AGL
Clouds: sky clear below 12,000 feet AGL
Weather: no significant weather observed at this time

METAR text: KMAF 151753Z 13008KT 10SM FEW065 34/16 A3004 RMK AO2 SLP118 T03440156 10344 20233 58009
Conditions at: KMAF (MIDLAND , TX, US) observed 1753 UTC 15 July 2019
Temperature: 34.4°C (94°F)
Dewpoint: 15.6°C (60°F) [RH = 33%]
Pressure (altimeter): 30.04 inches Hg (1017.4 mb)
[Sea-level pressure: 1011.8 mb]
Winds: from the SE (130 degrees) at 9 MPH (8 knots; 4.1 m/s)
Visibility: 10 or more miles (16+ km)
Ceiling: at least 12,000 feet AGL
Clouds: few clouds at 6500 feet AGL
Weather: no significant weather observed at this time

METAR text: KMAF 151653Z 12007KT 070V150 10SM FEW060 33/16 A3005 RMK AO2 SLP122 T03330161
Conditions at: KMAF (MIDLAND , TX, US) observed 1653 UTC 15 July 2019
Temperature: 33.3°C (92°F)
Dewpoint: 16.1°C (61°F) [RH = 36%]
Pressure (altimeter): 30.05 inches Hg (1017.7 mb)
[Sea-level pressure: 1012.2 mb]
Winds: from the ESE (120 degrees) at 8 MPH (7 knots; 3.6 m/s)
Visibility: 10 or more miles (16+ km)
Ceiling: at least 12,000 feet AGL
Clouds: few clouds at 6000 feet AGL
Weather: no significant weather observed at this time

METAR text: KMAF 151553Z 23003KT 10SM CLR 32/17 A3006 RMK AO2 SLP127 T03170172
Conditions at: KMAF (MIDLAND , TX, US) observed 1553 UTC 15 July 2019
Temperature: 31.7°C (89°F)
Dewpoint: 17.2°C (63°F) [RH = 42%]
Pressure (altimeter): 30.06 inches Hg (1018.0 mb)
[Sea-level pressure: 1012.7 mb]
Winds: from the SW (230 degrees) at 3 MPH (3 knots; 1.5 m/s)
Visibility: 10 or more miles (16+ km)
Ceiling: at least 12,000 feet AGL
Clouds: sky clear below 12,000 feet AGL
Weather: no significant weather observed at this time

METAR text: KMAF 151453Z 16007KT 10SM CLR 30/19 A3007 RMK AO2 SLP129 T03000189 53008
Conditions at: KMAF (MIDLAND , TX, US) observed 1453 UTC 15 July 2019
Temperature: 30.0°C (86°F)
Dewpoint: 18.9°C (66°F) [RH = 51%]
Pressure (altimeter): 30.07 inches Hg (1018.4 mb)
[Sea-level pressure: 1012.9 mb]
Winds: from the SSE (160 degrees) at 8 MPH (7 knots; 3.6 m/s)
Visibility: 10 or more miles (16+ km)
Ceiling: at least 12,000 feet AGL
Clouds: sky clear below 12,000 feet AGL
Weather: no significant weather observed at this time

METAR text: KMAF 151353Z 19006KT 10SM CLR 27/19 A3006 RMK AO2 SLP128 T02720189
Conditions at: KMAF (MIDLAND , TX, US) observed 1353 UTC 15 July 2019
Temperature: 27.2°C (81°F)
Dewpoint: 18.9°C (66°F) [RH = 61%]
Pressure (altimeter): 30.06 inches Hg (1018.0 mb)
[Sea-level pressure: 1012.8 mb]
Winds: from the S (190 degrees) at 7 MPH (6 knots; 3.1 m/s)
Visibility: 10 or more miles (16+ km)
Ceiling: at least 12,000 feet AGL
Clouds: sky clear below 12,000 feet AGL
Weather: no significant weather observed at this time

METAR text: KMAF 151253Z 15004KT 10SM CLR 24/18 A3005 RMK AO2 SLP123 T02440178
Conditions at: KMAF (MIDLAND , TX, US) observed 1253 UTC 15 July 2019
Temperature: 24.4°C (76°F)
Dewpoint: 17.8°C (64°F) [RH = 67%]
Pressure (altimeter): 30.05 inches Hg (1017.7 mb)
[Sea-level pressure: 1012.3 mb]
Winds: from the SSE (150 degrees) at 5 MPH (4 knots; 2.1 m/s)
Visibility: 10 or more miles (16+ km)
Ceiling: at least 12,000 feet AGL
Clouds: sky clear below 12,000 feet AGL
Weather: no significant weather observed at this time

METAR text: KMAF 151153Z 16003KT 10SM CLR 23/17 A3004 RMK AO2 SLP121 T02330167 10267 20228 53004
Conditions at: KMAF (MIDLAND , TX, US) observed 1153 UTC 15 July 2019
Temperature: 23.3°C (74°F)
Dewpoint: 16.7°C (62°F) [RH = 66%]
Pressure (altimeter): 30.04 inches Hg (1017.4 mb)
[Sea-level pressure: 1012.1 mb]
Winds: from the SSE (160 degrees) at 3 MPH (3 knots; 1.5 m/s)
Visibility: 10 or more miles (16+ km)
Ceiling: at least 12,000 feet AGL
Clouds: sky clear below 12,000 feet AGL
Weather: no significant weather observed at this time

METAR text: KMAF 151053Z 15005KT 10SM CLR 23/17 A3003 RMK AO2 SLP117 T02330167
Conditions at: KMAF (MIDLAND , TX, US) observed 1053 UTC 15 July 2019
Temperature: 23.3°C (74°F)
Dewpoint: 16.7°C (62°F) [RH = 66%]
Pressure (altimeter): 30.03 inches Hg (1017.0 mb)
[Sea-level pressure: 1011.7 mb]
Winds: from the SSE (150 degrees) at 6 MPH (5 knots; 2.6 m/s)
Visibility: 10 or more miles (16+ km)
Ceiling: at least 12,000 feet AGL
Clouds: sky clear below 12,000 feet AGL
Weather: no significant weather observed at this time

METAR text: KMAF 150953Z AUTO 12006KT 10SM CLR 24/17 A3003 RMK AO2 SLP117 T02440167
Conditions at: KMAF (MIDLAND , TX, US) observed 0953 UTC 15 July 2019
Temperature: 24.4°C (76°F)
Dewpoint: 16.7°C (62°F) [RH = 62%]
Pressure (altimeter): 30.03 inches Hg (1017.0 mb)
[Sea-level pressure: 1011.7 mb]
Winds: from the ESE (120 degrees) at 7 MPH (6 knots; 3.1 m/s)
Visibility: 10 or more miles (16+ km)
Ceiling: at least 12,000 feet AGL
Clouds: sky clear below 12,000 feet AGL
Weather: automated observation with no human augmentation;
there may or may not be significant weather present at this time

METAR text: KMAF 150853Z AUTO 00000KT 10SM CLR 23/16 A3003 RMK AO2 SLP117 T02280156 58003
Conditions at: KMAF (MIDLAND , TX, US) observed 0853 UTC 15 July 2019
Temperature: 22.8°C (73°F)
Dewpoint: 15.6°C (60°F) [RH = 64%]
Pressure (altimeter): 30.03 inches Hg (1017.0 mb)
[Sea-level pressure: 1011.7 mb]
Winds: calm
Visibility: 10 or more miles (16+ km)
Ceiling: at least 12,000 feet AGL
Clouds: sky clear below 12,000 feet AGL
Weather: automated observation with no human augmentation;
there may or may not be significant weather present at this time

METAR text: KMAF 150753Z AUTO 16005KT 10SM CLR 25/16 A3004 RMK AO2 SLP119 T02500161
Conditions at: KMAF (MIDLAND , TX, US) observed 0753 UTC 15 July 2019
Temperature: 25.0°C (77°F)
Dewpoint: 16.1°C (61°F) [RH = 58%]
Pressure (altimeter): 30.04 inches Hg (1017.4 mb)
[Sea-level pressure: 1011.9 mb]
Winds: from the SSE (160 degrees) at 6 MPH (5 knots; 2.6 m/s)
Visibility: 10 or more miles (16+ km)
Ceiling: at least 12,000 feet AGL
Clouds: sky clear below 12,000 feet AGL
Weather: automated observation with no human augmentation;
there may or may not be significant weather present at this time

METAR text: KMAF 150653Z AUTO 00000KT 10SM CLR 26/16 A3004 RMK AO2 SLP119 T02560156
Conditions at: KMAF (MIDLAND , TX, US) observed 0653 UTC 15 July 2019
Temperature: 25.6°C (78°F)
Dewpoint: 15.6°C (60°F) [RH = 54%]
Pressure (altimeter): 30.04 inches Hg (1017.4 mb)
[Sea-level pressure: 1011.9 mb]
Winds: calm
Visibility: 10 or more miles (16+ km)
Ceiling: at least 12,000 feet AGL
Clouds: sky clear below 12,000 feet AGL
Weather: automated observation with no human augmentation;
there may or may not be significant weather present at this time

METAR text: KMAF 150553Z AUTO 13006KT 10SM CLR 27/16 A3004 RMK AO2 SLP120 T02670156 10339 20267 403440183 51009
Conditions at: KMAF (MIDLAND , TX, US) observed 0553 UTC 15 July 2019
Temperature: 26.7°C (80°F)
Dewpoint: 15.6°C (60°F) [RH = 51%]
Pressure (altimeter): 30.04 inches Hg (1017.4 mb)
[Sea-level pressure: 1012.0 mb]
Winds: from the SE (130 degrees) at 7 MPH (6 knots; 3.1 m/s)
Visibility: 10 or more miles (16+ km)
Ceiling: at least 12,000 feet AGL
Clouds: sky clear below 12,000 feet AGL
Weather: automated observation with no human augmentation;
there may or may not be significant weather present at this time

METAR text: KMAF 150453Z AUTO 10006KT 10SM CLR 27/15 A3004 RMK AO2 SLP119 T02720150
Conditions at: KMAF (MIDLAND , TX, US) observed 0453 UTC 15 July 2019
Temperature: 27.2°C (81°F)
Dewpoint: 15.0°C (59°F) [RH = 47%]
Pressure (altimeter): 30.04 inches Hg (1017.4 mb)
[Sea-level pressure: 1011.9 mb]
Winds: from the E (100 degrees) at 7 MPH (6 knots; 3.1 m/s)
Visibility: 10 or more miles (16+ km)
Ceiling: at least 12,000 feet AGL
Clouds: sky clear below 12,000 feet AGL
Weather: automated observation with no human augmentation;
there may or may not be significant weather present at this time

METAR text: KMAF 150353Z 09006KT 10SM CLR 28/14 A3003 RMK AO2 SLP116 T02830144
Conditions at: KMAF (MIDLAND , TX, US) observed 0353 UTC 15 July 2019
Temperature: 28.3°C (83°F)
Dewpoint: 14.4°C (58°F) [RH = 43%]
Pressure (altimeter): 30.03 inches Hg (1017.0 mb)
[Sea-level pressure: 1011.6 mb]
Winds: from the E (90 degrees) at 7 MPH (6 knots; 3.1 m/s)
Visibility: 10 or more miles (16+ km)
Ceiling: at least 12,000 feet AGL
Clouds: sky clear below 12,000 feet AGL
Weather: no significant weather observed at this time

METAR text: KMAF 150253Z 08006KT 10SM CLR 29/14 A3001 RMK AO2 SLP112 T02940139 53003
Conditions at: KMAF (MIDLAND , TX, US) observed 0253 UTC 15 July 2019
Temperature: 29.4°C (85°F)
Dewpoint: 13.9°C (57°F) [RH = 39%]
Pressure (altimeter): 30.01 inches Hg (1016.3 mb)
[Sea-level pressure: 1011.2 mb]
Winds: from the E (80 degrees) at 7 MPH (6 knots; 3.1 m/s)
Visibility: 10 or more miles (16+ km)
Ceiling: at least 12,000 feet AGL
Clouds: sky clear below 12,000 feet AGL
Weather: no significant weather observed at this time

METAR text: KMAF 150153Z 07006KT 10SM CLR 31/14 A3000 RMK AO2 SLP108 T03110139
Conditions at: KMAF (MIDLAND , TX, US) observed 0153 UTC 15 July 2019
Temperature: 31.1°C (88°F)
Dewpoint: 13.9°C (57°F) [RH = 35%]
Pressure (altimeter): 30.00 inches Hg (1016.0 mb)
[Sea-level pressure: 1010.8 mb]
Winds: from the ENE (70 degrees) at 7 MPH (6 knots; 3.1 m/s)
Visibility: 10 or more miles (16+ km)
Ceiling: at least 12,000 feet AGL
Clouds: sky clear below 12,000 feet AGL
Weather: no significant weather observed at this time

METAR text: KMAF 150053Z 07011KT 10SM CLR 33/13 A2999 RMK AO2 SLP108 T03330133
Conditions at: KMAF (MIDLAND , TX, US) observed 0053 UTC 15 July 2019
Temperature: 33.3°C (92°F)
Dewpoint: 13.3°C (56°F) [RH = 30%]
Pressure (altimeter): 29.99 inches Hg (1015.7 mb)
[Sea-level pressure: 1010.8 mb]
Winds: from the ENE (70 degrees) at 13 MPH (11 knots; 5.7 m/s)
Visibility: 10 or more miles (16+ km)
Ceiling: at least 12,000 feet AGL
Clouds: sky clear below 12,000 feet AGL
Weather: no significant weather observed at this time

METAR text: KMAF 142353Z 07008KT 10SM CLR 34/13 A3000 RMK AO2 SLP111 T03390133 10344 20294 56016
Conditions at: KMAF (MIDLAND , TX, US) observed 2353 UTC 14 July 2019
Temperature: 33.9°C (93°F)
Dewpoint: 13.3°C (56°F) [RH = 29%]
Pressure (altimeter): 30.00 inches Hg (1016.0 mb)
[Sea-level pressure: 1011.1 mb]
Winds: from the ENE (70 degrees) at 9 MPH (8 knots; 4.1 m/s)
Visibility: 10 or more miles (16+ km)
Ceiling: at least 12,000 feet AGL
Clouds: sky clear below 12,000 feet AGL
Weather: no significant weather observed at this time

METAR text: KMAF 142253Z 07008KT 10SM CLR 34/13 A3002 RMK AO2 SLP115 T03440133
Conditions at: KMAF (MIDLAND , TX, US) observed 2253 UTC 14 July 2019
Temperature: 34.4°C (94°F)
Dewpoint: 13.3°C (56°F) [RH = 28%]
Pressure (altimeter): 30.02 inches Hg (1016.7 mb)
[Sea-level pressure: 1011.5 mb]
Winds: from the ENE (70 degrees) at 9 MPH (8 knots; 4.1 m/s)
Visibility: 10 or more miles (16+ km)
Ceiling: at least 12,000 feet AGL
Clouds: sky clear below 12,000 feet AGL
Weather: no significant weather observed at this time

METAR text: KMAF 142153Z 10004KT 10SM CLR 33/13 A3003 RMK AO2 SLP121 T03330133
Conditions at: KMAF (MIDLAND , TX, US) observed 2153 UTC 14 July 2019
Temperature: 33.3°C (92°F)
Dewpoint: 13.3°C (56°F) [RH = 30%]
Pressure (altimeter): 30.03 inches Hg (1017.0 mb)
[Sea-level pressure: 1012.1 mb]
Winds: from the E (100 degrees) at 5 MPH (4 knots; 2.1 m/s)
Visibility: 10 or more miles (16+ km)
Ceiling: at least 12,000 feet AGL
Clouds: sky clear below 12,000 feet AGL
Weather: no significant weather observed at this time

METAR text: KMAF 142053Z 10SM CLR 33/13 A3005 RMK AO2 SLP127 T03330133 56018
Conditions at: KMAF (MIDLAND , TX, US) observed 2053 UTC 14 July 2019
Temperature: 33.3°C (92°F)
Dewpoint: 13.3°C (56°F) [RH = 30%]
Pressure (altimeter): 30.05 inches Hg (1017.7 mb)
[Sea-level pressure: 1012.7 mb]
Winds: missing
Visibility: 10 or more miles (16+ km)
Ceiling: at least 12,000 feet AGL
Clouds: sky clear below 12,000 feet AGL
Weather: no significant weather observed at this time

METAR text: KMAF 141953Z 05010KT 10SM CLR 33/13 A3007 RMK AO2 SLP131 T03280133
Conditions at: KMAF (MIDLAND , TX, US) observed 1953 UTC 14 July 2019
Temperature: 32.8°C (91°F)
Dewpoint: 13.3°C (56°F) [RH = 31%]
Pressure (altimeter): 30.07 inches Hg (1018.4 mb)
[Sea-level pressure: 1013.1 mb]
Winds: from the NE (50 degrees) at 12 MPH (10 knots; 5.1 m/s)
Visibility: 10 or more miles (16+ km)
Ceiling: at least 12,000 feet AGL
Clouds: sky clear below 12,000 feet AGL
Weather: no significant weather observed at this time

METAR text: KMAF 141853Z 05009KT 10SM CLR 32/14 A3009 RMK AO2 SLP140 T03220139
Conditions at: KMAF (MIDLAND , TX, US) observed 1853 UTC 14 July 2019
Temperature: 32.2°C (90°F)
Dewpoint: 13.9°C (57°F) [RH = 33%]
Pressure (altimeter): 30.09 inches Hg (1019.0 mb)
[Sea-level pressure: 1014.0 mb]
Winds: from the NE (50 degrees) at 10 MPH (9 knots; 4.6 m/s)
Visibility: 10 or more miles (16+ km)
Ceiling: at least 12,000 feet AGL
Clouds: sky clear below 12,000 feet AGL
Weather: no significant weather observed at this time

METAR text: KMAF 141753Z 06007KT 10SM CLR 31/14 A3011 RMK AO2 SLP145 T03060144 10306 20183 58009
Conditions at: KMAF (MIDLAND , TX, US) observed 1753 UTC 14 July 2019
Temperature: 30.6°C (87°F)
Dewpoint: 14.4°C (58°F) [RH = 37%]
Pressure (altimeter): 30.11 inches Hg (1019.7 mb)
[Sea-level pressure: 1014.5 mb]
Winds: from the ENE (60 degrees) at 8 MPH (7 knots; 3.6 m/s)
Visibility: 10 or more miles (16+ km)
Ceiling: at least 12,000 feet AGL
Clouds: sky clear below 12,000 feet AGL
Weather: no significant weather observed at this time

METAR text: KMAF 141653Z 03005G15KT 10SM SCT046 29/16 A3013 RMK AO2 SLP151 T02940156
Conditions at: KMAF (MIDLAND , TX, US) observed 1653 UTC 14 July 2019
Temperature: 29.4°C (85°F)
Dewpoint: 15.6°C (60°F) [RH = 43%]
Pressure (altimeter): 30.13 inches Hg (1020.4 mb)
[Sea-level pressure: 1015.1 mb]
Winds: from the NNE (30 degrees) at 6 MPH (5 knots; 2.6 m/s)
gusting to 17 MPH (15 knots; 7.7 m/s)
Visibility: 10 or more miles (16+ km)
Ceiling: at least 12,000 feet AGL
Clouds: scattered clouds at 4600 feet AGL
Weather: no significant weather observed at this time

METAR text: KMAF 141553Z 06007KT 10SM FEW041 28/16 A3013 RMK AO2 SLP153 T02830161
Conditions at: KMAF (MIDLAND , TX, US) observed 1553 UTC 14 July 2019
Temperature: 28.3°C (83°F)
Dewpoint: 16.1°C (61°F) [RH = 48%]
Pressure (altimeter): 30.13 inches Hg (1020.4 mb)
[Sea-level pressure: 1015.3 mb]
Winds: from the ENE (60 degrees) at 8 MPH (7 knots; 3.6 m/s)
Visibility: 10 or more miles (16+ km)
Ceiling: at least 12,000 feet AGL
Clouds: few clouds at 4100 feet AGL
Weather: no significant weather observed at this time

METAR text: KMAF 141453Z 13004KT 10SM CLR 26/16 A3014 RMK AO2 SLP156 T02610161 51017
Conditions at: KMAF (MIDLAND , TX, US) observed 1453 UTC 14 July 2019
Temperature: 26.1°C (79°F)
Dewpoint: 16.1°C (61°F) [RH = 54%]
Pressure (altimeter): 30.14 inches Hg (1020.7 mb)
[Sea-level pressure: 1015.6 mb]
Winds: from the SE (130 degrees) at 5 MPH (4 knots; 2.1 m/s)
Visibility: 10 or more miles (16+ km)
Ceiling: at least 12,000 feet AGL
Clouds: sky clear below 12,000 feet AGL
Weather: no significant weather observed at this time

Forecast for: KMAF (MIDLAND , TX, US)
Text: KMAF 152339Z 1600/1624 16011KT P6SM SCT070 SCT250
Forecast period: 0000 UTC 16 July 2019 to 0000 UTC 17 July 2019
Forecast type: FROM: standard forecast or significant change
Winds: from the SSE (160 degrees) at 13 MPH (11 knots; 5.7 m/s)
Visibility: 6 or more miles 10+ km)
Ceiling: at least 12,000 feet AGL
Clouds: scattered clouds at 7000 feet AGL
scattered clouds at 25000 feet AGL
Weather: no significant weather forecast for this period